Time,TemperatureF,DewpointF,PressureIn,WindDirection,WindDirectionDegrees,WindSpeedMPH,WindSpeedGustMPH,Humidity,HourlyPrecipIn,Conditions,Clouds,dailyrainin,SolarRadiationWatts/m^2,SoftwareType,DateUTC
2013-03-17 00:00:00,18.0,16.0,29.79,ESE,119,10.0,-999.0,93,-99.99,,,-99.99,0.040000,,2013-03-17 06:00:00,
2013-03-17 00:52:00,18.0,16.0,29.79,ESE,119,10.0,-999.0,93,-99.99,,,-99.99,0.040000,,2013-03-17 06:52:00,
2013-03-17 02:00:00,18.0,17.0,29.72,ESE,104,6.0,-999.0,94,-99.99,,,-99.99,0.030000,,2013-03-17 08:00:00,
2013-03-17 02:52:00,18.0,17.0,29.72,ESE,104,6.0,-999.0,94,-99.99,,,-99.99,0.030000,,2013-03-17 08:52:00,
2013-03-17 03:00:00,19.0,18.0,29.67,ESE,116,7.0,-999.0,94,-99.99,,,-99.99,0.040000,,2013-03-17 09:00:00,
2013-03-17 03:53:00,19.0,18.0,29.67,ESE,116,7.0,-999.0,94,-99.99,,,-99.99,0.040000,,2013-03-17 09:53:00,
2013-03-17 04:00:00,20.0,19.0,29.63,ESE,121,9.0,-999.0,94,-99.99,,,-99.99,0.030000,,2013-03-17 10:00:00,
2013-03-17 04:52:00,20.0,19.0,29.63,ESE,121,9.0,-999.0,94,-99.99,,,-99.99,0.030000,,2013-03-17 10:52:00,
2013-03-17 05:00:00,23.0,22.0,29.59,ESE,120,8.0,-999.0,95,-99.99,,,-99.99,0.020000,,2013-03-17 11:00:00,
2013-03-17 05:52:00,23.0,22.0,29.59,ESE,120,8.0,-999.0,95,-99.99,,,-99.99,0.020000,,2013-03-17 11:52:00,
2013-03-17 06:00:00,25.0,24.0,29.55,SE,126,10.0,-999.0,95,-99.99,,,-99.99,0.030000,,2013-03-17 12:00:00,
2013-03-17 06:52:00,25.0,24.0,29.55,SE,126,10.0,-999.0,95,-99.99,,,-99.99,0.030000,,2013-03-17 12:52:00,
2013-03-17 07:00:00,25.0,24.0,29.51,ESE,123,11.0,-999.0,97,-99.99,,,-99.99,0.050000,,2013-03-17 13:00:00,
2013-03-17 07:52:00,25.0,24.0,29.51,ESE,123,11.0,-999.0,97,-99.99,,,-99.99,0.050000,,2013-03-17 13:52:00,
2013-03-17 08:00:00,25.0,25.0,29.49,SE,135,13.0,-999.0,98,-99.99,,,-99.99,4.950000,,2013-03-17 14:00:00,
2013-03-17 08:53:00,25.0,25.0,29.49,SE,135,13.0,-999.0,98,-99.99,,,-99.99,4.950000,,2013-03-17 14:53:00,
2013-03-17 09:00:00,26.0,26.0,29.48,SE,129,12.0,-999.0,99,-99.99,,,-99.99,32.180000,,2013-03-17 15:00:00,
2013-03-17 09:53:00,26.0,26.0,29.48,SE,129,12.0,-999.0,99,-99.99,,,-99.99,32.180000,,2013-03-17 15:53:00,
2013-03-17 10:00:00,27.0,26.0,29.45,SE,139,12.0,-999.0,97,-99.99,,,-99.99,81.199997,,2013-03-17 16:00:00,
2013-03-17 10:52:00,27.0,26.0,29.45,SE,139,12.0,-999.0,97,-99.99,,,-99.99,81.199997,,2013-03-17 16:52:00,
2013-03-17 11:00:00,27.0,25.0,29.44,SE,142,12.0,-999.0,94,-99.99,,,-99.99,169.199997,,2013-03-17 17:00:00,
2013-03-17 11:53:00,27.0,25.0,29.44,SE,142,12.0,-999.0,94,-99.99,,,-99.99,169.199997,,2013-03-17 17:53:00,
2013-03-17 12:00:00,27.0,26.0,29.42,SSE,149,11.0,-999.0,95,-99.99,,,-99.99,144.600006,,2013-03-17 18:00:00,
2013-03-17 12:52:00,27.0,26.0,29.42,SSE,149,11.0,-999.0,95,-99.99,,,-99.99,144.600006,,2013-03-17 18:52:00,
2013-03-17 13:00:00,29.0,27.0,29.42,South,176,7.0,-999.0,91,-99.99,,,-99.99,233.899994,,2013-03-17 19:00:00,
2013-03-17 13:53:00,29.0,27.0,29.42,South,176,7.0,-999.0,91,-99.99,,,-99.99,233.899994,,2013-03-17 19:53:00,
2013-03-17 14:00:00,28.0,25.0,29.43,WSW,240,10.0,-999.0,90,-99.99,,,-99.99,286.299988,,2013-03-17 20:00:00,
2013-03-17 14:52:00,28.0,25.0,29.43,WSW,240,10.0,-999.0,90,-99.99,,,-99.99,286.299988,,2013-03-17 20:52:00,
2013-03-17 15:00:00,25.0,23.0,29.44,NW,304,29.0,-999.0,90,-99.99,,,-99.99,245.199997,,2013-03-17 21:00:00,
2013-03-17 15:52:00,25.0,23.0,29.44,NW,304,29.0,-999.0,90,-99.99,,,-99.99,245.199997,,2013-03-17 21:52:00,
2013-03-17 16:00:00,22.0,19.0,29.49,NW,304,33.0,-999.0,89,-99.99,,,-99.99,208.600006,,2013-03-17 22:00:00,
2013-03-17 16:53:00,22.0,19.0,29.49,NW,304,33.0,-999.0,89,-99.99,,,-99.99,208.600006,,2013-03-17 22:53:00,
2013-03-17 17:00:00,17.0,14.0,29.55,NW,305,33.0,-999.0,88,-99.99,,,-99.99,192.500000,,2013-03-17 23:00:00,
2013-03-17 17:53:00,17.0,14.0,29.55,NW,305,33.0,-999.0,88,-99.99,,,-99.99,192.500000,,2013-03-17 23:53:00,
2013-03-17 18:00:00,13.0,11.0,29.60,NW,307,34.0,-999.0,89,-99.99,,,-99.99,87.199997,,2013-03-18 00:00:00,
2013-03-17 18:53:00,13.0,11.0,29.60,NW,307,34.0,-999.0,89,-99.99,,,-99.99,87.199997,,2013-03-18 00:53:00,
2013-03-17 19:00:00,10.0,7.0,29.64,NW,306,31.0,-999.0,87,-99.99,,,-99.99,38.930000,,2013-03-18 01:00:00,
2013-03-17 19:52:00,10.0,7.0,29.64,NW,306,31.0,-999.0,87,-99.99,,,-99.99,38.930000,,2013-03-18 01:52:00,
2013-03-17 20:00:00,8.0,5.0,29.68,WNW,302,29.0,-999.0,84,-99.99,,,-99.99,1.540000,,2013-03-18 02:00:00,
2013-03-17 20:52:00,8.0,5.0,29.68,WNW,302,29.0,-999.0,84,-99.99,,,-99.99,1.540000,,2013-03-18 02:52:00,
2013-03-17 21:00:00,7.0,3.0,29.71,NW,308,30.0,-999.0,85,-99.99,,,-99.99,0.030000,,2013-03-18 03:00:00,
2013-03-17 21:53:00,7.0,3.0,29.71,NW,308,30.0,-999.0,85,-99.99,,,-99.99,0.030000,,2013-03-18 03:53:00,
2013-03-17 22:00:00,5.0,2.0,29.73,WNW,302,28.0,-999.0,84,-99.99,,,-99.99,0.030000,,2013-03-18 04:00:00,
2013-03-17 22:53:00,5.0,2.0,29.73,WNW,302,28.0,-999.0,84,-99.99,,,-99.99,0.030000,,2013-03-18 04:53:00,
2013-03-17 23:00:00,4.0,-1.0,29.77,NW,306,24.0,-999.0,80,-99.99,,,-99.99,0.030000,,2013-03-18 05:00:00,
2013-03-17 23:52:00,4.0,-1.0,29.77,NW,306,24.0,-999.0,80,-99.99,,,-99.99,0.030000,,2013-03-18 05:52:00,